Time;durP1;ratioP1;P1;durP2;ratioP2;P2;SDS_P1;SDS_P2;PMS_P1;PMS_P2;Temp;Humidity;BMP_temperature;BMP_pressure;BME280_temperature;BME280_humidity;BME280_pressure;Samples;Min_cycle;Max_cycle;Signal;HPM_P1;HPM_P2
2021/09/25 00:00:00;;;;;;;1.52;1.35;;;19.00;79.20;;;;;;4994543;28;20415;-79
2021/09/25 00:02:26;;;;;;;1.20;1.10;;;19.00;79.20;;;;;;4991271;28;20112;-77
2021/09/25 00:04:52;;;;;;;1.10;1.00;;;19.00;79.30;;;;;;4990895;28;20035;-79
2021/09/25 00:07:18;;;;;;;0.85;0.85;;;18.90;79.20;;;;;;4989114;28;20037;-78
2021/09/25 00:09:44;;;;;;;1.15;1.00;;;19.00;79.40;;;;;;4990196;28;20561;-79
2021/09/25 00:12:11;;;;;;;1.20;1.08;;;18.90;79.30;;;;;;4972709;28;20034;-79
2021/09/25 00:14:38;;;;;;;1.00;0.90;;;18.90;79.40;;;;;;4988277;28;20089;-78
2021/09/25 00:17:06;;;;;;;1.65;0.88;;;18.90;79.40;;;;;;4999722;28;20030;-78
2021/09/25 00:19:41;;;;;;;1.67;1.00;;;18.90;79.50;;;;;;4978393;28;20985;-80
2021/09/25 00:22:08;;;;;;;0.80;0.80;;;18.80;79.40;;;;;;4972651;28;20089;-78
2021/09/25 00:24:35;;;;;;;1.10;0.90;;;18.80;79.40;;;;;;4986470;28;20092;-80
2021/09/25 00:27:01;;;;;;;0.70;0.70;;;18.80;79.40;;;;;;4991409;28;20042;-78
2021/09/25 00:29:27;;;;;;;1.08;0.95;;;18.80;79.50;;;;;;4978571;28;20089;-78
2021/09/25 00:31:53;;;;;;;0.70;0.70;;;18.80;79.50;;;;;;4987861;28;20125;-80
2021/09/25 00:34:20;;;;;;;0.88;0.77;;;18.80;79.60;;;;;;4984180;28;20196;-79
2021/09/25 00:36:48;;;;;;;0.90;0.85;;;18.80;79.60;;;;;;5009146;28;20040;-79
2021/09/25 00:39:14;;;;;;;1.98;0.90;;;18.80;79.60;;;;;;5008500;28;20439;-79
2021/09/25 00:41:40;;;;;;;1.00;0.88;;;18.80;79.60;;;;;;4974644;28;20038;-79
2021/09/25 00:44:07;;;;;;;1.27;0.70;;;18.80;79.70;;;;;;4990144;28;20121;-80
2021/09/25 00:46:33;;;;;;;1.15;1.05;;;18.70;79.60;;;;;;5002573;28;20069;-79
2021/09/25 00:49:00;;;;;;;0.90;0.80;;;18.70;79.50;;;;;;4988844;28;20153;-80
2021/09/25 00:51:26;;;;;;;1.15;0.95;;;18.70;79.60;;;;;;4989088;28;20920;-77
2021/09/25 00:53:52;;;;;;;1.10;0.98;;;18.70;79.60;;;;;;4971162;28;20057;-79
2021/09/25 00:56:18;;;;;;;1.02;0.98;;;18.70;79.60;;;;;;4987859;28;20037;-78
2021/09/25 00:58:45;;;;;;;1.98;0.98;;;18.70;79.70;;;;;;4988451;28;20038;-80
2021/09/25 01:01:11;;;;;;;0.93;0.93;;;18.70;79.70;;;;;;4987354;28;20088;-80
2021/09/25 01:03:37;;;;;;;1.30;1.17;;;18.70;79.70;;;;;;4988628;28;20034;-79
2021/09/25 01:06:03;;;;;;;1.00;1.00;;;18.70;79.80;;;;;;4988692;28;20108;-79
2021/09/25 01:08:29;;;;;;;1.10;1.00;;;18.60;79.60;;;;;;4987043;28;20062;-79
2021/09/25 01:10:56;;;;;;;0.95;0.80;;;18.60;79.60;;;;;;4989022;28;20030;-79
2021/09/25 01:13:23;;;;;;;1.45;1.35;;;18.60;79.70;;;;;;4992667;28;20034;-80
2021/09/25 01:15:49;;;;;;;0.90;0.90;;;18.60;79.70;;;;;;5007691;28;20037;-79
2021/09/25 01:18:16;;;;;;;1.65;1.10;;;18.60;79.70;;;;;;5005494;28;20497;-80
2021/09/25 01:20:42;;;;;;;1.00;1.00;;;18.60;79.70;;;;;;4988715;28;20449;-79
2021/09/25 01:23:08;;;;;;;1.27;1.17;;;18.60;79.80;;;;;;4970912;28;20066;-79
2021/09/25 01:25:34;;;;;;;1.20;1.10;;;18.60;79.80;;;;;;4970968;28;20113;-79
2021/09/25 01:28:01;;;;;;;1.05;0.93;;;18.60;79.80;;;;;;4970678;28;20453;-80
2021/09/25 01:30:28;;;;;;;0.88;0.88;;;18.60;79.80;;;;;;4988991;28;20069;-78
2021/09/25 01:32:54;;;;;;;1.30;1.10;;;18.60;79.80;;;;;;4975873;28;20125;-78
2021/09/25 01:35:23;;;;;;;0.95;0.85;;;18.60;79.80;;;;;;4991342;28;20033;-78
2021/09/25 01:37:52;;;;;;;0.82;0.80;;;18.60;79.80;;;;;;4991421;28;20544;-78
2021/09/25 01:40:19;;;;;;;2.40;1.05;;;18.60;79.80;;;;;;4972266;28;20030;-78
2021/09/25 01:42:46;;;;;;;1.17;1.00;;;18.60;79.80;;;;;;4987576;28;20073;-79
2021/09/25 01:45:13;;;;;;;1.83;0.90;;;18.60;79.80;;;;;;4988174;28;20034;-79
2021/09/25 01:47:42;;;;;;;1.45;1.25;;;18.60;79.80;;;;;;4994071;28;20056;-79
2021/09/25 01:50:11;;;;;;;1.35;1.17;;;18.60;79.90;;;;;;4993741;28;20514;-77
2021/09/25 01:52:38;;;;;;;0.93;0.90;;;18.60;79.90;;;;;;4994303;28;20037;-79
2021/09/25 01:55:05;;;;;;;1.20;1.10;;;18.60;79.90;;;;;;4977977;28;20064;-78
2021/09/25 01:57:31;;;;;;;1.02;0.88;;;18.60;79.90;;;;;;4994190;28;20057;-78
2021/09/25 01:59:57;;;;;;;2.08;1.73;;;18.60;79.90;;;;;;4993840;28;20474;-79
2021/09/25 02:02:23;;;;;;;1.38;1.17;;;18.60;79.90;;;;;;4994038;28;20037;-79
2021/09/25 02:04:49;;;;;;;1.20;1.10;;;18.60;80.00;;;;;;5010198;28;20497;-78
2021/09/25 02:07:18;;;;;;;2.05;1.85;;;18.50;79.80;;;;;;4977629;28;20057;-78
2021/09/25 02:09:45;;;;;;;1.20;1.10;;;18.50;79.80;;;;;;4993681;28;20180;-78
2021/09/25 02:12:11;;;;;;;1.58;1.48;;;18.50;79.80;;;;;;5011309;28;20022;-78
2021/09/25 02:14:38;;;;;;;1.80;1.40;;;18.50;79.90;;;;;;4993660;28;20077;-80
2021/09/25 02:17:04;;;;;;;1.83;1.73;;;18.50;79.90;;;;;;4993742;28;20252;-79
2021/09/25 02:19:30;;;;;;;2.15;1.23;;;18.50;79.90;;;;;;4993539;28;20430;-79
2021/09/25 02:21:56;;;;;;;1.65;1.15;;;18.50;80.00;;;;;;5010078;28;20222;-79
2021/09/25 02:24:22;;;;;;;1.77;1.60;;;18.50;80.00;;;;;;4993548;28;20266;-79
2021/09/25 02:26:48;;;;;;;1.55;1.42;;;18.50;80.00;;;;;;4993622;28;20060;-78
2021/09/25 02:29:14;;;;;;;1.48;1.38;;;18.50;80.00;;;;;;4993979;28;20094;-80
2021/09/25 02:31:40;;;;;;;2.15;1.35;;;18.50;80.50;;;;;;4993127;28;20037;-78
2021/09/25 02:34:06;;;;;;;2.00;1.85;;;18.50;80.00;;;;;;5009597;28;20355;-79
2021/09/25 02:36:32;;;;;;;1.58;1.48;;;18.50;80.00;;;;;;4993867;28;20149;-79
2021/09/25 02:38:59;;;;;;;2.25;1.75;;;18.50;80.10;;;;;;4976936;28;20038;-79
2021/09/25 02:41:25;;;;;;;1.92;1.60;;;18.50;80.10;;;;;;4992901;28;20058;-78
2021/09/25 02:43:51;;;;;;;2.20;1.75;;;18.50;80.10;;;;;;4993403;28;20037;-78
2021/09/25 02:46:17;;;;;;;2.45;1.58;;;18.50;80.10;;;;;;4992909;28;20042;-78
2021/09/25 02:48:43;;;;;;;1.35;1.25;;;18.50;80.10;;;;;;4992738;28;20124;-79
2021/09/25 02:51:09;;;;;;;2.05;1.80;;;18.50;80.10;;;;;;5009850;28;20485;-77
2021/09/25 02:53:35;;;;;;;1.50;1.40;;;18.50;80.10;;;;;;5010029;28;20299;-78
2021/09/25 02:56:00;;;;;;;1.92;1.77;;;18.50;80.10;;;;;;4976681;28;20029;-77
2021/09/25 02:58:26;;;;;;;1.58;1.48;;;18.50;80.10;;;;;;4993571;28;20053;-78
2021/09/25 03:00:52;;;;;;;1.70;1.58;;;18.50;80.10;;;;;;4976468;28;20026;-78
2021/09/25 03:03:18;;;;;;;1.90;1.55;;;18.40;80.00;;;;;;4976886;28;20041;-79
2021/09/25 03:05:44;;;;;;;1.70;1.52;;;18.40;80.00;;;;;;5009688;28;20080;-78
2021/09/25 03:08:10;;;;;;;1.77;1.67;;;18.40;80.00;;;;;;4992956;28;20034;-78
2021/09/25 03:10:36;;;;;;;1.73;1.63;;;18.40;80.00;;;;;;4993456;28;20125;-77
2021/09/25 03:13:02;;;;;;;1.60;1.50;;;18.40;80.00;;;;;;4992673;28;20118;-77
2021/09/25 03:15:28;;;;;;;1.65;1.50;;;18.40;80.10;;;;;;5010594;28;20037;-78
2021/09/25 03:17:54;;;;;;;2.70;1.80;;;18.40;80.10;;;;;;5009243;28;20079;-78
2021/09/25 03:20:21;;;;;;;1.65;1.55;;;18.40;80.10;;;;;;4997133;28;20123;-78
2021/09/25 03:22:46;;;;;;;1.58;1.48;;;18.40;80.10;;;;;;5014697;28;20116;-79
2021/09/25 03:25:14;;;;;;;2.15;1.75;;;18.40;80.20;;;;;;4997128;28;20423;-78
2021/09/25 03:27:40;;;;;;;2.38;1.40;;;18.40;80.20;;;;;;5007051;28;20021;-79
2021/09/25 03:30:09;;;;;;;1.65;1.55;;;18.40;80.20;;;;;;5036295;28;20333;-77
2021/09/25 03:32:35;;;;;;;1.67;1.42;;;18.40;80.20;;;;;;5018109;28;20025;-79
2021/09/25 03:35:02;;;;;;;2.15;1.90;;;18.40;80.20;;;;;;5033766;28;20097;-78
2021/09/25 03:37:28;;;;;;;1.90;1.80;;;18.40;80.30;;;;;;5012470;28;20304;-77
2021/09/25 03:39:54;;;;;;;2.42;2.13;;;18.40;80.30;;;;;;4998162;28;20041;-78
2021/09/25 03:42:20;;;;;;;2.00;1.70;;;18.40;80.30;;;;;;5014590;28;20034;-78
2021/09/25 03:44:46;;;;;;;1.60;1.50;;;18.40;80.30;;;;;;4996951;28;20030;-78
2021/09/25 03:47:12;;;;;;;1.52;1.42;;;18.40;80.30;;;;;;4996256;28;20045;-78
2021/09/25 03:49:38;;;;;;;2.60;1.50;;;18.40;80.30;;;;;;5014222;28;20038;-78
2021/09/25 03:52:04;;;;;;;2.42;2.00;;;18.40;80.30;;;;;;4996606;28;20030;-77
2021/09/25 03:54:30;;;;;;;1.90;1.65;;;18.40;80.30;;;;;;4996064;28;20263;-78
2021/09/25 03:56:56;;;;;;;2.08;1.88;;;18.40;80.30;;;;;;5013572;28;20551;-78
2021/09/25 03:59:22;;;;;;;1.67;1.58;;;18.40;80.30;;;;;;4996260;28;20038;-79
2021/09/25 04:01:48;;;;;;;1.70;1.60;;;18.40;80.40;;;;;;5013869;28;20033;-78
2021/09/25 04:04:14;;;;;;;1.75;1.55;;;18.40;80.40;;;;;;4996144;28;20388;-78
2021/09/25 04:06:40;;;;;;;2.20;1.70;;;18.40;80.40;;;;;;5013981;28;20037;-78
2021/09/25 04:09:07;;;;;;;1.70;1.60;;;18.40;80.40;;;;;;5013510;28;20080;-77
2021/09/25 04:11:34;;;;;;;2.00;1.85;;;18.40;80.40;;;;;;5013426;28;20062;-79
2021/09/25 04:14:00;;;;;;;2.10;1.63;;;18.40;80.40;;;;;;4995826;28;20037;-78
2021/09/25 04:16:27;;;;;;;1.95;1.73;;;18.40;80.40;;;;;;4995794;28;20124;-78
2021/09/25 04:18:54;;;;;;;2.42;2.20;;;18.40;80.50;;;;;;4979178;28;20046;-79
2021/09/25 04:21:20;;;;;;;2.08;1.65;;;18.40;80.50;;;;;;4995883;28;20128;-79
2021/09/25 04:23:46;;;;;;;2.63;1.70;;;18.40;80.50;;;;;;5013457;28;20040;-78
2021/09/25 04:26:12;;;;;;;1.58;1.48;;;18.40;80.50;;;;;;4995557;28;20079;-78
2021/09/25 04:28:38;;;;;;;1.88;1.60;;;18.30;80.30;;;;;;4995751;28;20125;-78
2021/09/25 04:31:04;;;;;;;2.50;1.85;;;18.40;80.50;;;;;;4995288;28;20196;-78
2021/09/25 04:33:30;;;;;;;1.88;1.55;;;18.40;80.60;;;;;;4995305;28;20079;-78
2021/09/25 04:35:56;;;;;;;2.00;1.80;;;18.40;80.60;;;;;;4995849;28;20053;-78
2021/09/25 04:38:22;;;;;;;1.55;1.33;;;18.40;80.60;;;;;;4979010;28;20045;-78
2021/09/25 04:40:48;;;;;;;2.88;1.98;;;18.40;80.60;;;;;;4995529;28;20026;-79
2021/09/25 04:43:14;;;;;;;1.50;1.40;;;18.40;80.60;;;;;;4995670;28;20400;-79
2021/09/25 04:45:40;;;;;;;1.55;1.45;;;18.40;80.70;;;;;;4995589;28;20327;-78
2021/09/25 04:48:06;;;;;;;2.10;1.70;;;18.40;80.70;;;;;;4987918;28;20131;-78
2021/09/25 04:50:32;;;;;;;1.83;1.52;;;18.30;80.50;;;;;;4990071;28;20054;-77
2021/09/25 04:53:10;;;;;;;2.28;1.70;;;18.30;80.50;;;;;;4990094;28;20073;-77
2021/09/25 04:55:37;;;;;;;1.60;1.50;;;18.40;80.70;;;;;;4989957;28;20022;-77
2021/09/25 04:58:04;;;;;;;2.08;1.40;;;18.40;80.70;;;;;;4988577;28;20049;-77
2021/09/25 05:00:30;;;;;;;1.60;1.48;;;18.30;80.50;;;;;;4988953;28;20103;-77
2021/09/25 05:02:56;;;;;;;1.60;1.50;;;18.40;80.70;;;;;;4973895;28;20041;-78
2021/09/25 05:05:22;;;;;;;1.60;1.48;;;18.30;80.50;;;;;;4987055;28;20022;-77
2021/09/25 05:07:49;;;;;;;1.42;1.33;;;18.30;80.50;;;;;;4955305;28;20038;-78
2021/09/25 05:10:16;;;;;;;2.13;1.70;;;18.30;80.50;;;;;;4986682;28;20057;-78
2021/09/25 05:12:43;;;;;;;2.03;1.55;;;18.30;80.50;;;;;;4989700;28;20029;-78
2021/09/25 05:15:09;;;;;;;1.58;1.48;;;18.30;80.50;;;;;;4990123;28;20026;-78
2021/09/25 05:17:35;;;;;;;2.17;1.98;;;18.30;80.50;;;;;;5000557;28;20110;-78
2021/09/25 05:20:07;;;;;;;2.10;1.77;;;18.30;80.60;;;;;;5007484;28;20060;-79
2021/09/25 05:22:33;;;;;;;2.65;2.20;;;18.30;80.70;;;;;;4989716;28;20148;-79
2021/09/25 05:24:59;;;;;;;1.75;1.63;;;18.30;80.70;;;;;;4990279;28;20056;-80
2021/09/25 05:27:25;;;;;;;1.33;1.23;;;18.30;80.70;;;;;;4973083;28;20160;-79
2021/09/25 05:29:52;;;;;;;1.60;1.50;;;18.30;80.70;;;;;;4970573;28;20123;-77
2021/09/25 05:32:18;;;;;;;1.67;1.58;;;18.30;80.70;;;;;;4973647;28;20670;-77
2021/09/25 05:34:44;;;;;;;2.92;1.98;;;18.30;80.80;;;;;;5007462;28;20124;-79
2021/09/25 05:37:12;;;;;;;1.65;1.50;;;18.30;80.80;;;;;;4989476;28;20040;-78
2021/09/25 05:39:39;;;;;;;2.28;1.98;;;18.30;80.80;;;;;;4988962;28;20540;-78
2021/09/25 05:42:05;;;;;;;1.58;1.48;;;18.30;80.90;;;;;;4986938;28;20072;-78
2021/09/25 05:44:31;;;;;;;1.77;1.67;;;18.30;80.90;;;;;;4986320;28;20062;-78
2021/09/25 05:46:57;;;;;;;1.58;1.40;;;18.30;80.90;;;;;;4995774;28;20296;-79
2021/09/25 05:49:23;;;;;;;2.22;2.03;;;18.30;80.90;;;;;;4989358;28;20045;-78
2021/09/25 05:51:50;;;;;;;1.50;1.40;;;18.30;80.90;;;;;;5007338;28;20041;-78
2021/09/25 05:54:16;;;;;;;3.03;1.88;;;18.30;81.50;;;;;;4989631;28;20026;-79
2021/09/25 05:56:42;;;;;;;2.83;2.30;;;18.30;81.00;;;;;;4989765;28;20026;-78
2021/09/25 05:59:08;;;;;;;5.90;3.28;;;18.30;81.10;;;;;;4988441;28;20136;-79
2021/09/25 06:01:36;;;;;;;3.65;2.80;;;18.30;81.50;;;;;;4989265;28;20507;-80
2021/09/25 06:04:03;;;;;;;3.05;2.75;;;18.30;81.90;;;;;;5007306;28;20061;-80
2021/09/25 06:06:28;;;;;;;2.95;2.72;;;18.30;82.00;;;;;;5007210;28;20033;-77
2021/09/25 06:08:54;;;;;;;3.10;2.80;;;18.30;82.10;;;;;;5006652;28;20030;-80
2021/09/25 06:11:20;;;;;;;2.78;2.58;;;18.30;82.20;;;;;;4973516;28;20040;-79
2021/09/25 06:13:46;;;;;;;5.00;3.42;;;18.30;82.20;;;;;;4974116;28;20477;-76
2021/09/25 06:16:13;;;;;;;3.25;2.95;;;18.40;82.40;;;;;;4940717;28;20033;-78
2021/09/25 06:18:39;;;;;;;3.38;3.05;;;18.30;82.20;;;;;;4979247;28;20120;-79
2021/09/25 06:21:05;;;;;;;3.28;2.97;;;18.40;82.40;;;;;;4986507;28;20062;-78
2021/09/25 06:23:31;;;;;;;4.65;2.80;;;18.30;82.30;;;;;;4994970;28;20366;-78
2021/09/25 06:25:58;;;;;;;6.32;3.67;;;18.40;82.50;;;;;;4989595;28;20125;-77
2021/09/25 06:28:24;;;;;;;26.00;9.05;;;18.40;82.50;;;;;;4991807;28;20134;-77
2021/09/25 06:30:49;;;;;;;24.50;8.48;;;18.40;82.80;;;;;;5002512;28;20034;-77
2021/09/25 06:33:16;;;;;;;20.25;7.72;;;18.40;83.10;;;;;;4995341;28;20093;-77
2021/09/25 06:35:41;;;;;;;22.08;8.43;;;18.40;83.50;;;;;;4987541;28;20038;-76
2021/09/25 06:38:07;;;;;;;18.02;8.02;;;18.50;84.00;;;;;;4990947;28;20065;-76
2021/09/25 06:40:34;;;;;;;16.77;6.85;;;18.50;84.30;;;;;;5006043;28;20030;-76
2021/09/25 06:42:59;;;;;;;18.80;8.48;;;18.50;84.70;;;;;;5005434;28;20145;-77
2021/09/25 06:45:30;;;;;;;14.85;7.05;;;18.60;85.10;;;;;;5007113;28;20532;-76
2021/09/25 06:47:57;;;;;;;17.00;7.28;;;18.60;85.30;;;;;;4983614;28;20050;-78
2021/09/25 06:50:23;;;;;;;12.60;6.68;;;18.70;85.60;;;;;;4985556;28;20453;-77
2021/09/25 06:52:49;;;;;;;13.07;6.88;;;18.70;85.70;;;;;;4996161;28;20038;-79
2021/09/25 06:55:15;;;;;;;12.45;6.60;;;18.70;85.80;;;;;;4988322;28;20052;-77
2021/09/25 06:57:41;;;;;;;13.27;5.93;;;18.80;86.00;;;;;;4969470;28;20033;-78
2021/09/25 07:00:07;;;;;;;11.75;6.43;;;18.80;86.10;;;;;;4989566;28;20357;-77
2021/09/25 07:02:38;;;;;;;8.85;5.47;;;18.80;86.10;;;;;;4973598;28;20037;-77
2021/09/25 07:05:05;;;;;;;8.63;5.10;;;18.80;86.20;;;;;;4994601;28;20029;-79
2021/09/25 07:07:33;;;;;;;6.40;4.95;;;18.90;86.80;;;;;;5009966;28;20038;-78
2021/09/25 07:09:59;;;;;;;6.60;5.07;;;18.90;86.20;;;;;;5028757;28;20077;-80
2021/09/25 07:12:25;;;;;;;7.00;4.95;;;19.00;86.30;;;;;;5009110;28;20061;-78
2021/09/25 07:14:52;;;;;;;7.35;4.45;;;19.00;86.20;;;;;;5005127;28;20029;-78
2021/09/25 07:17:18;;;;;;;6.72;4.95;;;19.00;86.00;;;;;;4995148;28;20037;-78
2021/09/25 07:19:44;;;;;;;5.78;4.78;;;19.00;85.90;;;;;;4971365;28;20519;-82
2021/09/25 07:22:11;;;;;;;8.05;4.55;;;19.10;86.00;;;;;;4988949;28;20153;-78
2021/09/25 07:24:38;;;;;;;9.02;4.78;;;19.10;85.90;;;;;;4973571;28;20036;-78
2021/09/25 07:27:04;;;;;;;6.40;4.30;;;19.20;85.90;;;;;;4996088;28;20508;-78
2021/09/25 07:29:30;;;;;;;5.50;4.00;;;19.20;85.80;;;;;;4988481;28;20111;-79
2021/09/25 07:31:56;;;;;;;9.35;4.60;;;19.20;85.70;;;;;;4972534;28;20099;-79
2021/09/25 07:34:23;;;;;;;5.18;3.83;;;19.30;85.70;;;;;;4969277;28;20046;-79
2021/09/25 07:36:49;;;;;;;4.95;4.25;;;19.30;85.60;;;;;;4998923;28;20038;-80
2021/09/25 07:39:15;;;;;;;6.75;4.22;;;19.40;85.60;;;;;;4996173;28;20029;-79
2021/09/25 07:41:41;;;;;;;4.53;3.78;;;19.40;85.50;;;;;;4988125;28;20026;-81
2021/09/25 07:44:07;;;;;;;4.95;3.72;;;19.50;85.40;;;;;;5005840;28;20084;-79
2021/09/25 07:46:33;;;;;;;4.60;3.75;;;19.60;85.40;;;;;;4986552;28;20191;-79
2021/09/25 07:48:59;;;;;;;4.32;3.47;;;19.60;85.10;;;;;;4971283;28;20053;-80
2021/09/25 07:51:27;;;;;;;5.35;3.70;;;19.70;85.10;;;;;;5006201;28;20422;-81
2021/09/25 07:53:53;;;;;;;5.00;4.13;;;19.80;85.00;;;;;;5005879;28;20058;-81
2021/09/25 07:56:19;;;;;;;7.07;3.97;;;19.80;84.80;;;;;;5005676;28;20133;-82
2021/09/25 07:58:45;;;;;;;3.80;3.40;;;19.90;84.80;;;;;;4977012;28;20137;-79
2021/09/25 08:01:11;;;;;;;4.63;3.38;;;19.90;84.50;;;;;;4984359;28;20040;-79
2021/09/25 08:03:37;;;;;;;4.95;4.10;;;20.00;84.50;;;;;;4983677;28;20390;-81
2021/09/25 08:06:03;;;;;;;3.13;2.83;;;20.10;84.40;;;;;;4988900;28;20030;-79
2021/09/25 08:08:29;;;;;;;4.40;3.50;;;20.10;84.20;;;;;;4980862;28;20028;-80
2021/09/25 08:10:55;;;;;;;4.32;3.90;;;20.20;84.20;;;;;;4991358;28;20037;-79
2021/09/25 08:13:21;;;;;;;4.45;3.72;;;20.30;84.20;;;;;;4979894;28;20057;-82
2021/09/25 08:15:48;;;;;;;4.43;2.92;;;20.30;83.90;;;;;;4989191;28;20030;-77
2021/09/25 08:18:14;;;;;;;7.75;4.03;;;20.40;83.80;;;;;;4974304;28;20077;-80
2021/09/25 08:20:40;;;;;;;3.42;3.13;;;20.40;83.60;;;;;;4994081;28;20033;-80
2021/09/25 08:23:06;;;;;;;3.40;3.10;;;20.50;83.50;;;;;;4998074;28;20045;-80
2021/09/25 08:25:32;;;;;;;3.25;2.95;;;20.60;83.50;;;;;;4971632;28;20232;-78
2021/09/25 08:27:58;;;;;;;3.50;3.03;;;20.60;83.30;;;;;;4976251;28;20069;-80
2021/09/25 08:30:25;;;;;;;3.35;2.92;;;20.70;83.20;;;;;;5008656;28;20054;-77
2021/09/25 08:32:54;;;;;;;3.00;2.80;;;20.80;83.20;;;;;;4971810;28;20117;-81
2021/09/25 08:35:22;;;;;;;3.45;3.15;;;20.90;83.70;;;;;;4971895;28;20065;-79
2021/09/25 08:37:48;;;;;;;5.20;3.15;;;21.00;83.10;;;;;;4989202;28;20137;-81
2021/09/25 08:40:18;;;;;;;4.55;3.08;;;21.10;83.00;;;;;;4988923;28;20054;-78
2021/09/25 08:42:45;;;;;;;3.75;2.60;;;21.20;82.90;;;;;;4994272;28;20099;-80
2021/09/25 08:45:11;;;;;;;3.70;3.38;;;21.30;82.80;;;;;;5008453;28;20033;-79
2021/09/25 08:47:37;;;;;;;3.47;3.15;;;21.40;82.70;;;;;;5007662;28;20068;-78
2021/09/25 08:50:05;;;;;;;3.38;3.08;;;21.40;82.50;;;;;;4990918;28;20034;-79
2021/09/25 08:52:32;;;;;;;3.38;2.97;;;21.50;82.40;;;;;;4986502;28;20080;-78
2021/09/25 08:54:58;;;;;;;3.03;2.72;;;21.60;82.30;;;;;;4987345;28;20054;-79
2021/09/25 08:57:24;;;;;;;2.80;2.58;;;21.60;82.10;;;;;;4970934;28;20070;-79
2021/09/25 08:59:51;;;;;;;5.13;3.20;;;21.70;82.00;;;;;;4990258;28;20038;-80
2021/09/25 09:02:19;;;;;;;3.00;2.65;;;21.80;81.90;;;;;;4990785;28;20034;-80
2021/09/25 09:04:54;;;;;;;3.15;2.88;;;21.90;81.90;;;;;;5008216;28;20038;-79
2021/09/25 09:07:27;;;;;;;3.72;2.97;;;22.00;81.70;;;;;;4990180;28;20087;-80
2021/09/25 09:09:53;;;;;;;3.58;3.28;;;22.10;81.60;;;;;;4988526;28;20026;-79
2021/09/25 09:12:23;;;;;;;3.25;2.95;;;22.10;81.30;;;;;;4988270;28;20038;-78
2021/09/25 09:14:50;;;;;;;3.22;2.92;;;22.20;81.20;;;;;;4988279;28;20176;-80
2021/09/25 09:17:22;;;;;;;3.28;2.97;;;22.30;81.10;;;;;;4994185;28;20073;-79
2021/09/25 09:19:49;;;;;;;3.28;3.05;;;22.40;81.10;;;;;;4987030;28;20376;-80
2021/09/25 09:22:20;;;;;;;2.83;2.63;;;22.50;81.00;;;;;;4987424;28;20022;-79
2021/09/25 09:24:51;;;;;;;2.95;2.63;;;22.60;80.80;;;;;;4988720;28;20038;-81
2021/09/25 09:27:23;;;;;;;3.38;2.55;;;22.70;80.80;;;;;;4988733;28;20049;-79
2021/09/25 09:29:49;;;;;;;2.40;2.20;;;22.80;80.60;;;;;;4989609;28;20057;-79
2021/09/25 09:32:15;;;;;;;3.40;3.10;;;23.00;80.80;;;;;;5007500;28;20516;-80
2021/09/25 09:34:43;;;;;;;5.10;2.63;;;23.00;80.40;;;;;;4990181;28;20041;-80
2021/09/25 09:37:17;;;;;;;2.78;2.58;;;23.20;80.40;;;;;;4990605;28;20116;-80
2021/09/25 09:39:44;;;;;;;2.88;2.30;;;23.30;80.30;;;;;;5006450;28;20034;-79
2021/09/25 09:42:12;;;;;;;2.50;2.30;;;23.40;80.10;;;;;;4990204;28;20076;-80
2021/09/25 09:44:38;;;;;;;2.78;2.58;;;23.50;80.00;;;;;;4989197;28;20038;-80
2021/09/25 09:47:07;;;;;;;2.58;2.35;;;23.60;79.80;;;;;;4977230;28;20096;-80
2021/09/25 09:49:37;;;;;;;3.03;2.42;;;23.60;79.50;;;;;;5002733;28;20462;-79
2021/09/25 09:52:11;;;;;;;2.50;2.30;;;23.70;79.50;;;;;;4989735;28;20041;-80
2021/09/25 09:54:46;;;;;;;3.15;2.70;;;23.70;79.40;;;;;;4989729;28;20179;-79
2021/09/25 09:57:13;;;;;;;2.65;2.45;;;23.80;79.30;;;;;;4988111;28;20493;-79
2021/09/25 09:59:41;;;;;;;2.38;2.25;;;23.90;79.40;;;;;;5005361;28;20048;-80
2021/09/25 10:02:08;;;;;;;2.60;2.40;;;24.00;79.30;;;;;;4989159;28;20124;-79
2021/09/25 10:04:35;;;;;;;2.30;1.98;;;24.10;79.20;;;;;;4988922;28;20033;-80
2021/09/25 10:07:01;;;;;;;2.17;2.05;;;24.10;78.90;;;;;;4973631;28;20120;-79
2021/09/25 10:09:29;;;;;;;2.63;2.42;;;24.20;78.90;;;;;;5006898;28;20498;-79
2021/09/25 10:12:05;;;;;;;2.58;2.13;;;24.30;78.80;;;;;;5005775;28;20068;-80
2021/09/25 10:14:34;;;;;;;1.67;1.58;;;24.40;78.70;;;;;;5005390;28;20049;-78
2021/09/25 10:17:04;;;;;;;1.95;1.73;;;24.40;78.50;;;;;;5006645;28;20033;-80
2021/09/25 10:19:32;;;;;;;1.90;1.70;;;24.50;78.40;;;;;;4972307;28;20191;-79
2021/09/25 10:22:11;;;;;;;2.72;2.53;;;24.60;78.30;;;;;;4978768;28;20042;-80
2021/09/25 10:24:41;;;;;;;2.03;1.77;;;24.70;78.20;;;;;;4969358;28;20050;-79
2021/09/25 10:27:08;;;;;;;1.55;1.45;;;24.90;78.20;;;;;;4986934;28;20030;-79
2021/09/25 10:29:41;;;;;;;2.22;2.03;;;25.00;78.10;;;;;;4986420;28;20034;-80
2021/09/25 10:32:29;;;;;;;2.15;1.73;;;25.00;77.80;;;;;;4986269;28;20065;-79
2021/09/25 10:35:08;;;;;;;1.73;1.60;;;25.10;77.60;;;;;;4972515;28;20069;-79
2021/09/25 10:37:37;;;;;;;2.10;2.00;;;25.10;77.30;;;;;;5006339;28;20064;-80
2021/09/25 10:40:06;;;;;;;2.45;2.25;;;25.10;77.10;;;;;;5005215;28;20422;-80
2021/09/25 10:42:46;;;;;;;1.98;1.80;;;25.20;77.00;;;;;;4972180;28;20029;-80
2021/09/25 10:45:23;;;;;;;1.77;1.63;;;25.30;76.70;;;;;;5006559;28;20026;-79
2021/09/25 10:48:12;;;;;;;1.42;1.33;;;25.30;77.00;;;;;;4982329;28;20057;-79
2021/09/25 10:50:54;;;;;;;1.90;1.70;;;25.40;76.40;;;;;;4954133;28;20487;-79
2021/09/25 10:53:36;;;;;;;1.77;1.67;;;25.40;76.20;;;;;;4982162;28;20035;-80
2021/09/25 10:56:26;;;;;;;2.22;1.70;;;25.50;76.10;;;;;;4965871;28;20034;-79
2021/09/25 10:58:54;;;;;;;1.48;1.38;;;25.50;75.90;;;;;;4965601;28;20467;-79
2021/09/25 11:01:34;;;;;;;1.67;1.58;;;25.60;75.80;;;;;;4966079;28;20038;-80
2021/09/25 11:04:07;;;;;;;2.15;1.50;;;25.80;75.50;;;;;;4981758;28;20092;-79
2021/09/25 11:06:46;;;;;;;1.80;1.70;;;25.80;75.30;;;;;;4965915;28;20045;-79
2021/09/25 11:09:16;;;;;;;1.65;1.55;;;25.90;75.10;;;;;;4965410;28;20038;-80
2021/09/25 11:11:49;;;;;;;1.83;1.73;;;25.90;74.90;;;;;;4966286;28;20436;-80
2021/09/25 11:14:40;;;;;;;2.20;1.33;;;26.00;74.50;;;;;;4984617;28;20129;-78
2021/09/25 11:17:10;;;;;;;1.83;1.65;;;26.10;74.40;;;;;;4994779;28;20023;-78
2021/09/25 11:20:01;;;;;;;1.48;1.27;;;26.20;74.20;;;;;;4994983;28;20122;-77
2021/09/25 11:22:47;;;;;;;2.55;1.60;;;26.30;74.00;;;;;;5015159;28;20113;-78
2021/09/25 11:25:16;;;;;;;1.23;1.13;;;26.40;73.80;;;;;;4990666;28;20046;-78
2021/09/25 11:27:51;;;;;;;1.35;1.25;;;26.50;73.50;;;;;;5005494;28;20038;-79
2021/09/25 11:30:19;;;;;;;1.30;1.20;;;26.60;73.30;;;;;;4984402;28;20035;-78
2021/09/25 11:32:47;;;;;;;1.30;1.20;;;26.70;73.10;;;;;;4981393;28;20138;-79
2021/09/25 11:35:16;;;;;;;1.40;1.30;;;26.80;72.80;;;;;;4985365;28;20027;-77
2021/09/25 11:38:00;;;;;;;1.40;1.30;;;26.80;72.60;;;;;;4990649;28;20027;-79
2021/09/25 11:40:36;;;;;;;1.23;1.10;;;26.90;72.40;;;;;;4989478;28;20417;-78
2021/09/25 11:43:03;;;;;;;1.30;1.10;;;27.00;72.20;;;;;;4983101;28;20031;-79
2021/09/25 11:45:33;;;;;;;2.53;1.40;;;27.10;72.10;;;;;;4972855;28;20026;-78
2021/09/25 11:48:01;;;;;;;1.08;0.98;;;27.20;71.90;;;;;;4971827;28;20054;-78
2021/09/25 11:50:31;;;;;;;1.83;1.30;;;27.20;71.60;;;;;;4991303;28;20022;-78
2021/09/25 11:52:58;;;;;;;0.90;0.90;;;27.20;71.50;;;;;;4991213;28;20053;-77
2021/09/25 11:55:29;;;;;;;1.75;1.20;;;27.20;71.30;;;;;;4989087;28;20514;-77
2021/09/25 11:58:01;;;;;;;1.50;1.20;;;27.20;71.30;;;;;;4986169;28;20070;-79
2021/09/25 12:00:36;;;;;;;1.17;1.00;;;27.20;71.10;;;;;;4969872;28;20288;-78
2021/09/25 12:03:05;;;;;;;1.15;1.05;;;27.10;70.90;;;;;;4976475;28;20030;-78
2021/09/25 12:05:35;;;;;;;1.40;1.30;;;27.00;70.90;;;;;;4980764;28;20058;-78
2021/09/25 12:08:12;;;;;;;1.13;1.00;;;27.00;70.80;;;;;;4989848;28;20035;-78
2021/09/25 12:10:40;;;;;;;3.55;1.20;;;27.00;70.80;;;;;;4953081;28;20023;-78
2021/09/25 12:13:08;;;;;;;1.67;1.58;;;27.00;71.00;;;;;;4977966;28;20045;-79
2021/09/25 12:15:40;;;;;;;1.17;1.08;;;27.00;70.90;;;;;;5003737;28;20194;-78
2021/09/25 12:18:13;;;;;;;1.13;1.02;;;27.00;70.80;;;;;;4983999;28;20067;-78
2021/09/25 12:20:41;;;;;;;1.15;1.05;;;27.10;70.90;;;;;;4971978;28;20550;-79
2021/09/25 12:23:08;;;;;;;1.27;1.02;;;27.20;70.80;;;;;;4987856;28;20482;-80
2021/09/25 12:25:38;;;;;;;1.23;1.10;;;27.40;70.80;;;;;;4952966;28;20062;-78
2021/09/25 12:28:27;;;;;;;0.90;0.90;;;27.50;70.60;;;;;;4981227;28;20058;-78
2021/09/25 12:30:58;;;;;;;1.35;1.25;;;27.60;70.30;;;;;;4999573;28;20027;-78
2021/09/25 12:33:24;;;;;;;1.45;1.15;;;27.80;70.20;;;;;;4977347;28;20061;-79
2021/09/25 12:35:59;;;;;;;1.20;1.10;;;28.00;70.00;;;;;;4984692;28;20115;-78
2021/09/25 12:38:40;;;;;;;1.13;1.00;;;28.10;69.70;;;;;;4975129;28;20200;-79
2021/09/25 12:41:12;;;;;;;0.82;0.82;;;28.20;69.40;;;;;;4971375;28;20182;-79
2021/09/25 12:43:51;;;;;;;1.48;1.20;;;28.40;69.20;;;;;;4989323;28;20035;-78
2021/09/25 12:46:22;;;;;;;1.00;0.90;;;28.40;69.10;;;;;;5004037;28;20030;-78
2021/09/25 12:49:05;;;;;;;1.13;1.02;;;28.40;68.90;;;;;;4995966;28;20092;-79